Time;durP1;ratioP1;P1;durP2;ratioP2;P2;SDS_P1;SDS_P2;PMS_P1;PMS_P2;Temp;Humidity;BMP_temperature;BMP_pressure;BME280_temperature;BME280_humidity;BME280_pressure;Samples;Min_cycle;Max_cycle;Signal;HPM_P1;HPM_P2
2022/05/24 00:00:17;;;;;;;3.35;1.58;;;25.40;41.20;;;;;;5043459;28;20033;-48
2022/05/24 00:02:43;;;;;;;3.00;1.60;;;25.40;41.20;;;;;;5039456;28;20056;-50
2022/05/24 00:05:10;;;;;;;3.25;1.73;;;25.40;41.20;;;;;;5043115;28;20481;-49
2022/05/24 00:07:38;;;;;;;2.90;1.60;;;25.40;41.20;;;;;;5043107;28;20017;-49
2022/05/24 00:10:06;;;;;;;2.35;1.23;;;25.40;41.20;;;;;;5041445;28;20098;-50
2022/05/24 00:12:32;;;;;;;3.50;1.90;;;25.40;41.20;;;;;;5042854;28;20544;-49
2022/05/24 00:17:45;;;;;;;2.40;1.27;;;25.40;41.30;;;;;;5042006;28;20646;-49
2022/05/24 00:20:11;;;;;;;3.08;1.58;;;25.40;41.30;;;;;;5023891;28;20498;-47
2022/05/24 00:22:37;;;;;;;3.90;1.88;;;25.40;41.30;;;;;;5042141;28;20029;-50
2022/05/24 00:25:03;;;;;;;3.63;1.83;;;25.40;41.40;;;;;;5043200;28;20053;-47
2022/05/24 00:27:30;;;;;;;3.47;1.83;;;25.40;41.50;;;;;;5043307;28;20707;-48
2022/05/24 00:29:56;;;;;;;2.97;1.48;;;25.40;41.40;;;;;;5042969;28;20040;-48
2022/05/24 00:32:23;;;;;;;3.92;1.60;;;25.30;41.50;;;;;;5042188;28;20029;-50
2022/05/24 00:34:49;;;;;;;2.88;1.20;;;25.40;41.50;;;;;;5042405;28;20555;-49
2022/05/24 00:37:21;;;;;;;2.92;1.55;;;25.30;41.50;;;;;;5043223;28;20493;-49
2022/05/24 00:39:47;;;;;;;2.78;1.40;;;25.40;41.50;;;;;;5043335;28;20612;-49
2022/05/24 00:42:18;;;;;;;2.42;1.40;;;25.30;41.50;;;;;;5041917;28;20040;-47
2022/05/24 00:44:49;;;;;;;4.78;1.70;;;25.30;41.60;;;;;;5042794;28;20017;-49
2022/05/24 00:47:31;;;;;;;2.72;1.50;;;25.40;41.50;;;;;;5045691;28;20025;-48
2022/05/24 00:50:01;;;;;;;2.33;1.38;;;25.40;41.50;;;;;;5045300;28;20093;-48
2022/05/24 00:52:49;;;;;;;2.58;1.33;;;25.30;41.50;;;;;;5045893;28;20049;-47
2022/05/24 00:55:21;;;;;;;3.22;1.42;;;25.30;41.50;;;;;;5044809;28;20033;-49
2022/05/24 00:58:02;;;;;;;2.33;1.13;;;25.30;41.50;;;;;;5046029;28;20057;-50
2022/05/24 01:00:28;;;;;;;2.70;1.35;;;25.30;41.50;;;;;;5044034;28;20021;-48
2022/05/24 01:02:54;;;;;;;2.28;1.30;;;25.30;41.50;;;;;;5043542;28;20048;-48
2022/05/24 01:05:26;;;;;;;2.72;1.42;;;25.30;41.50;;;;;;5046086;28;20061;-46
2022/05/24 01:07:52;;;;;;;3.15;1.30;;;25.30;41.60;;;;;;5044756;28;20014;-49
2022/05/24 01:10:34;;;;;;;3.58;1.58;;;25.30;41.60;;;;;;5028228;28;20027;-48
2022/05/24 01:13:10;;;;;;;3.00;1.47;;;25.30;41.70;;;;;;5044985;28;20586;-50
2022/05/24 01:15:37;;;;;;;2.15;1.25;;;25.30;41.70;;;;;;5045148;28;20267;-48
2022/05/24 01:18:04;;;;;;;3.00;1.35;;;25.30;41.80;;;;;;5045713;28;20456;-48
2022/05/24 01:20:30;;;;;;;2.58;1.20;;;25.30;41.80;;;;;;5044353;28;20079;-49
2022/05/24 01:23:26;;;;;;;2.80;1.50;;;25.30;41.80;;;;;;5045553;28;20021;-49
2022/05/24 01:25:56;;;;;;;2.78;1.50;;;25.30;41.80;;;;;;5027678;28;20040;-50
2022/05/24 01:28:42;;;;;;;2.90;1.45;;;25.30;41.90;;;;;;5045501;28;20362;-49
2022/05/24 01:31:09;;;;;;;2.65;1.40;;;25.30;41.90;;;;;;5045258;28;20032;-49
2022/05/24 01:36:24;;;;;;;2.25;1.17;;;25.30;41.90;;;;;;5045286;28;20100;-48
2022/05/24 01:38:53;;;;;;;3.83;1.30;;;25.30;41.90;;;;;;5044896;28;20397;-50
2022/05/24 01:41:26;;;;;;;2.67;1.55;;;25.30;41.90;;;;;;5045329;28;20738;-48
2022/05/24 01:43:53;;;;;;;1.67;1.05;;;25.30;41.90;;;;;;5044532;28;20096;-49
2022/05/24 01:46:30;;;;;;;2.58;1.30;;;25.30;42.20;;;;;;5044148;28;20029;-49
2022/05/24 01:48:59;;;;;;;3.90;1.38;;;25.30;41.90;;;;;;5044777;28;20025;-50
2022/05/24 01:51:31;;;;;;;2.38;1.30;;;25.30;41.90;;;;;;5045702;28;20048;-49
2022/05/24 01:54:01;;;;;;;2.58;1.30;;;25.30;41.90;;;;;;5045325;28;20036;-48
2022/05/24 01:56:35;;;;;;;2.00;1.15;;;25.30;42.00;;;;;;5043733;28;20037;-48
2022/05/24 01:59:03;;;;;;;2.45;1.17;;;25.30;42.00;;;;;;5043918;28;20090;-49
2022/05/24 02:01:44;;;;;;;1.90;1.00;;;25.30;42.00;;;;;;5027113;28;20397;-49
2022/05/24 02:04:10;;;;;;;2.67;1.27;;;25.30;42.10;;;;;;5043338;28;20033;-48
2022/05/24 02:06:37;;;;;;;1.98;1.08;;;25.30;42.10;;;;;;5044621;28;20501;-48
2022/05/24 02:09:05;;;;;;;1.75;1.02;;;25.30;42.10;;;;;;5045272;28;20051;-49
2022/05/24 02:11:32;;;;;;;2.85;1.13;;;25.30;42.10;;;;;;5043387;28;20021;-48
2022/05/24 02:14:16;;;;;;;2.22;1.17;;;25.30;42.20;;;;;;5044993;28;20025;-47
2022/05/24 02:16:51;;;;;;;2.65;1.17;;;25.30;42.20;;;;;;5043897;28;20119;-49
2022/05/24 02:19:18;;;;;;;2.17;1.10;;;25.30;42.20;;;;;;5043516;28;20033;-50
2022/05/24 02:21:47;;;;;;;2.20;1.20;;;25.30;42.20;;;;;;5044718;28;20456;-49
2022/05/24 02:24:21;;;;;;;2.20;1.20;;;25.30;42.20;;;;;;5042870;28;20100;-48
2022/05/24 02:26:48;;;;;;;2.28;1.30;;;25.30;42.20;;;;;;5044361;28;20025;-50
2022/05/24 02:29:15;;;;;;;1.98;0.93;;;25.30;42.20;;;;;;5026143;28;20079;-49
2022/05/24 02:31:40;;;;;;;2.85;1.55;;;25.30;42.20;;;;;;5044192;28;20392;-48
2022/05/24 02:34:06;;;;;;;2.30;1.17;;;25.30;42.10;;;;;;5043895;28;20025;-48
2022/05/24 02:36:32;;;;;;;1.45;0.88;;;25.30;42.10;;;;;;5044751;28;20578;-48
2022/05/24 02:38:58;;;;;;;2.67;1.27;;;25.20;42.20;;;;;;5044523;28;20021;-48
2022/05/24 02:41:31;;;;;;;2.67;1.20;;;25.30;42.20;;;;;;5043183;28;20400;-49
2022/05/24 02:43:59;;;;;;;2.97;1.52;;;25.20;42.20;;;;;;5023602;28;20555;-49
2022/05/24 02:46:25;;;;;;;2.10;1.10;;;25.20;42.20;;;;;;5024561;28;20021;-49
2022/05/24 02:48:51;;;;;;;2.33;1.20;;;25.30;42.20;;;;;;5024399;28;20045;-49
2022/05/24 02:51:17;;;;;;;3.10;1.33;;;25.30;42.20;;;;;;5043682;28;20519;-47
2022/05/24 02:53:45;;;;;;;2.63;1.50;;;25.20;42.30;;;;;;5043844;28;20024;-48
2022/05/24 02:56:11;;;;;;;2.45;1.10;;;25.20;42.30;;;;;;5041275;28;20039;-48
2022/05/24 02:58:38;;;;;;;1.85;1.08;;;25.20;42.40;;;;;;5043309;28;20032;-49
2022/05/24 03:01:11;;;;;;;1.98;1.00;;;25.20;42.30;;;;;;5043029;28;20028;-48
2022/05/24 03:03:37;;;;;;;2.20;1.02;;;25.20;42.30;;;;;;5042219;28;20597;-48
2022/05/24 03:06:02;;;;;;;2.78;1.30;;;25.20;42.30;;;;;;5043623;28;20029;-48
2022/05/24 03:11:12;;;;;;;1.70;1.00;;;25.20;42.40;;;;;;5043366;28;20031;-50
2022/05/24 03:16:22;;;;;;;2.90;1.40;;;25.20;42.40;;;;;;5043541;28;20036;-48
2022/05/24 03:18:48;;;;;;;2.17;1.13;;;25.20;42.30;;;;;;5042851;28;20021;-48
2022/05/24 03:21:14;;;;;;;2.28;1.17;;;25.20;42.30;;;;;;5042524;28;20102;-49
2022/05/24 03:23:40;;;;;;;2.35;1.15;;;25.20;42.30;;;;;;5043066;28;20021;-48
2022/05/24 03:26:05;;;;;;;2.60;1.15;;;25.20;42.30;;;;;;5043525;28;20516;-49
2022/05/24 03:28:32;;;;;;;2.25;1.02;;;25.20;42.40;;;;;;5043628;28;20089;-48
2022/05/24 03:30:57;;;;;;;1.98;1.15;;;25.20;42.40;;;;;;5043528;28;20021;-49
2022/05/24 03:33:25;;;;;;;2.42;1.17;;;25.20;42.40;;;;;;5042952;28;20045;-50
2022/05/24 03:35:50;;;;;;;1.80;1.00;;;25.20;42.40;;;;;;5042616;28;20075;-48
2022/05/24 03:38:16;;;;;;;2.60;1.25;;;25.20;42.40;;;;;;5043764;28;20021;-49
2022/05/24 03:40:42;;;;;;;2.92;1.17;;;25.20;42.40;;;;;;5043048;28;20054;-47
2022/05/24 03:43:13;;;;;;;3.45;1.58;;;25.20;42.50;;;;;;5043327;28;20017;-49
2022/05/24 03:45:39;;;;;;;1.98;1.05;;;25.20;42.50;;;;;;5042022;28;20112;-48
2022/05/24 03:48:05;;;;;;;2.83;1.60;;;25.20;42.50;;;;;;5043232;28;20104;-48
2022/05/24 03:50:31;;;;;;;2.30;1.20;;;25.20;42.60;;;;;;5042116;28;20017;-48
2022/05/24 03:52:57;;;;;;;3.03;1.20;;;25.20;43.30;;;;;;5042789;28;20024;-49
2022/05/24 03:55:22;;;;;;;2.72;1.40;;;25.20;42.60;;;;;;5043755;28;20033;-49
2022/05/24 03:58:00;;;;;;;2.35;1.33;;;25.20;42.70;;;;;;5042714;28;20033;-48
2022/05/24 04:00:34;;;;;;;4.25;1.45;;;25.20;43.40;;;;;;5042815;28;20108;-50
2022/05/24 04:03:00;;;;;;;2.15;1.15;;;25.20;42.70;;;;;;5042882;28;20642;-48
2022/05/24 04:05:26;;;;;;;2.33;1.05;;;25.20;42.70;;;;;;5041674;28;20033;-49
2022/05/24 04:07:52;;;;;;;2.58;1.15;;;25.20;42.60;;;;;;5042769;28;20730;-48
2022/05/24 04:10:19;;;;;;;2.50;1.30;;;25.20;42.60;;;;;;5043316;28;20025;-47
2022/05/24 04:12:45;;;;;;;2.00;1.02;;;25.20;42.60;;;;;;5043035;28;20064;-49
2022/05/24 04:15:12;;;;;;;2.75;1.35;;;25.20;42.70;;;;;;5043266;28;20028;-49
2022/05/24 04:17:38;;;;;;;2.53;1.25;;;25.20;42.70;;;;;;5043091;28;20094;-49
2022/05/24 04:20:06;;;;;;;2.60;1.40;;;25.20;42.70;;;;;;5043137;28;20056;-49
2022/05/24 04:22:32;;;;;;;2.33;1.30;;;25.20;42.70;;;;;;5045186;28;20021;-49
2022/05/24 04:24:59;;;;;;;2.22;1.17;;;25.20;42.70;;;;;;5046649;28;20036;-48
2022/05/24 04:27:25;;;;;;;2.38;1.20;;;25.20;42.80;;;;;;5047329;28;20021;-50
2022/05/24 04:29:53;;;;;;;2.90;1.33;;;25.20;42.80;;;;;;5046743;28;20027;-47
2022/05/24 04:32:19;;;;;;;2.47;1.40;;;25.20;42.80;;;;;;5046296;28;20045;-50
2022/05/24 04:34:45;;;;;;;3.30;1.50;;;25.20;42.90;;;;;;5046149;28;20028;-48
2022/05/24 04:37:11;;;;;;;2.60;1.35;;;25.20;42.90;;;;;;5044607;28;20059;-50
2022/05/24 04:39:37;;;;;;;2.10;1.20;;;25.20;42.90;;;;;;5046719;28;20028;-49
2022/05/24 04:42:19;;;;;;;2.35;1.20;;;25.20;42.90;;;;;;5046452;28;20122;-48
2022/05/24 04:45:09;;;;;;;2.10;1.20;;;25.20;42.90;;;;;;5045997;28;20036;-49
2022/05/24 04:47:36;;;;;;;2.92;1.30;;;25.20;42.90;;;;;;5046262;28;20028;-49
2022/05/24 04:50:07;;;;;;;2.65;1.23;;;25.20;42.90;;;;;;5045737;28;20025;-49
2022/05/24 04:52:36;;;;;;;2.40;1.13;;;25.20;42.90;;;;;;5027557;28;20017;-48
2022/05/24 04:55:05;;;;;;;2.20;1.00;;;25.20;42.90;;;;;;5046581;28;20116;-49
2022/05/24 04:57:31;;;;;;;2.47;1.00;;;25.20;42.90;;;;;;5045725;28;20041;-50
2022/05/24 04:59:57;;;;;;;2.10;1.10;;;25.20;42.80;;;;;;5046093;28;20104;-48
2022/05/24 05:02:23;;;;;;;2.10;1.08;;;25.20;42.90;;;;;;5043885;28;20100;-50
2022/05/24 05:04:49;;;;;;;2.97;1.30;;;25.20;43.00;;;;;;5045841;28;20064;-48
2022/05/24 05:07:16;;;;;;;2.95;1.45;;;25.20;43.00;;;;;;5045808;28;20033;-49
2022/05/24 05:09:43;;;;;;;2.75;1.15;;;25.20;42.90;;;;;;5045052;28;20193;-48
2022/05/24 05:12:10;;;;;;;2.75;1.30;;;25.20;42.90;;;;;;5044243;28;20017;-46
2022/05/24 05:14:38;;;;;;;2.15;1.30;;;25.20;42.90;;;;;;5045338;28;20053;-49
2022/05/24 05:17:04;;;;;;;2.95;1.40;;;25.20;43.50;;;;;;5044462;28;20048;-50
2022/05/24 05:19:30;;;;;;;4.25;1.92;;;25.20;43.60;;;;;;5045415;28;20516;-49
2022/05/24 05:21:56;;;;;;;2.80;1.70;;;25.20;43.90;;;;;;5043541;28;20101;-48
2022/05/24 05:24:23;;;;;;;3.88;1.65;;;25.20;43.90;;;;;;5027267;28;20064;-50
2022/05/24 05:26:48;;;;;;;3.33;1.60;;;25.20;44.10;;;;;;5045362;28;20010;-49
2022/05/24 05:29:14;;;;;;;3.78;1.67;;;25.20;44.60;;;;;;5045400;28;20031;-49
2022/05/24 05:31:40;;;;;;;5.07;1.88;;;25.30;44.70;;;;;;5044709;28;20029;-48
2022/05/24 05:34:06;;;;;;;2.70;1.40;;;25.30;44.70;;;;;;5042232;28;20021;-49
2022/05/24 05:36:33;;;;;;;2.83;1.45;;;25.30;44.40;;;;;;5043342;28;20035;-49
2022/05/24 05:39:00;;;;;;;3.90;1.77;;;25.40;44.10;;;;;;5043866;28;20033;-49
2022/05/24 05:41:29;;;;;;;4.05;1.48;;;25.40;44.00;;;;;;5044641;28;20025;-49
2022/05/24 05:43:56;;;;;;;3.72;1.60;;;25.30;43.90;;;;;;5042896;28;20028;-48
2022/05/24 05:46:22;;;;;;;3.38;1.67;;;25.30;43.80;;;;;;5026373;28;20040;-49
2022/05/24 05:48:48;;;;;;;3.20;1.50;;;25.30;43.80;;;;;;5044196;28;20024;-48
2022/05/24 05:51:15;;;;;;;2.90;1.58;;;25.30;44.40;;;;;;5025626;28;20108;-49
2022/05/24 05:53:41;;;;;;;4.47;2.10;;;25.30;43.80;;;;;;5027199;28;20033;-49
2022/05/24 05:56:25;;;;;;;6.75;2.05;;;25.30;44.60;;;;;;5043546;28;20132;-49
2022/05/24 05:58:51;;;;;;;3.70;1.75;;;25.40;44.50;;;;;;5044010;28;20036;-51
2022/05/24 06:01:20;;;;;;;4.32;1.95;;;25.30;44.30;;;;;;5042408;28;20025;-49
2022/05/24 06:03:45;;;;;;;3.38;1.63;;;25.30;44.10;;;;;;5043781;28;20116;-49
2022/05/24 06:06:22;;;;;;;3.45;1.70;;;25.30;44.10;;;;;;5044349;28;20485;-49
2022/05/24 06:08:48;;;;;;;3.85;1.85;;;25.30;44.30;;;;;;5043566;28;20092;-48
2022/05/24 06:11:13;;;;;;;3.80;2.00;;;25.30;44.00;;;;;;5043814;28;20097;-49
2022/05/24 06:13:39;;;;;;;6.20;2.42;;;25.40;44.70;;;;;;5042690;28;20052;-48
2022/05/24 06:16:05;;;;;;;9.05;3.22;;;25.40;45.20;;;;;;5043820;28;20075;-45
2022/05/24 06:18:31;;;;;;;8.15;3.10;;;25.40;45.70;;;;;;5042169;28;20144;-47
2022/05/24 06:20:56;;;;;;;7.57;3.10;;;25.40;46.80;;;;;;5043360;28;20108;-46
2022/05/24 06:23:22;;;;;;;5.28;2.72;;;25.40;46.50;;;;;;5043208;28;20021;-46
2022/05/24 06:25:48;;;;;;;6.88;3.28;;;25.50;46.30;;;;;;5043298;28;20100;-46
2022/05/24 06:28:15;;;;;;;6.40;2.83;;;25.50;46.00;;;;;;5043513;28;20528;-47
2022/05/24 06:30:42;;;;;;;5.13;2.40;;;25.40;45.70;;;;;;5043144;28;20103;-47
2022/05/24 06:33:08;;;;;;;8.25;2.60;;;25.40;45.70;;;;;;5041990;28;20463;-47
2022/05/24 06:35:37;;;;;;;7.15;2.35;;;25.50;46.10;;;;;;5042414;28;20409;-49
2022/05/24 06:38:03;;;;;;;5.60;2.40;;;25.50;46.20;;;;;;5041512;28;20029;-48
2022/05/24 06:40:29;;;;;;;4.30;2.33;;;25.50;45.80;;;;;;5041571;28;20029;-48
2022/05/24 06:42:54;;;;;;;4.60;2.50;;;25.50;46.00;;;;;;5042815;28;20110;-47
2022/05/24 06:45:20;;;;;;;5.80;2.53;;;25.50;45.80;;;;;;5042573;28;20033;-48
2022/05/24 06:47:46;;;;;;;5.47;2.30;;;25.50;45.70;;;;;;5043750;28;20486;-47
2022/05/24 06:50:13;;;;;;;8.00;2.17;;;25.50;45.50;;;;;;5044356;28;20063;-46
2022/05/24 06:52:38;;;;;;;6.13;2.55;;;25.50;45.50;;;;;;5044952;28;20025;-48
2022/05/24 06:55:06;;;;;;;3.90;1.75;;;25.50;45.30;;;;;;5043817;28;20112;-48
2022/05/24 06:57:32;;;;;;;4.80;1.92;;;25.50;45.10;;;;;;5044177;28;20032;-46
2022/05/24 07:02:42;;;;;;;4.32;1.85;;;25.50;45.00;;;;;;5041796;28;20090;-48
2022/05/24 07:05:13;;;;;;;5.32;2.00;;;25.50;45.00;;;;;;5043503;28;20033;-46
2022/05/24 07:07:40;;;;;;;3.30;1.80;;;25.50;44.90;;;;;;5043868;28;20021;-47
2022/05/24 07:10:08;;;;;;;5.35;1.98;;;25.50;44.70;;;;;;5043745;28;20048;-47
2022/05/24 07:12:34;;;;;;;3.75;1.60;;;25.50;44.80;;;;;;5043953;28;20550;-47
2022/05/24 07:15:00;;;;;;;4.63;2.08;;;25.50;45.10;;;;;;5044339;28;20051;-48
2022/05/24 07:17:27;;;;;;;3.75;1.75;;;25.50;45.00;;;;;;5044562;28;20477;-48
2022/05/24 07:19:53;;;;;;;3.78;1.90;;;25.50;44.90;;;;;;5044054;28;20083;-46
2022/05/24 07:22:19;;;;;;;3.00;1.30;;;25.50;44.70;;;;;;5044375;28;20025;-47
2022/05/24 07:24:48;;;;;;;4.03;2.10;;;25.50;44.70;;;;;;5044108;28;20115;-47
2022/05/24 07:27:15;;;;;;;4.03;2.00;;;25.50;44.60;;;;;;5040156;28;20111;-48
2022/05/24 07:29:41;;;;;;;3.58;1.90;;;25.50;44.50;;;;;;5034120;28;20053;-47
2022/05/24 07:32:07;;;;;;;4.03;1.83;;;25.50;44.50;;;;;;5023480;28;20616;-48
2022/05/24 07:34:34;;;;;;;4.53;1.85;;;25.50;44.40;;;;;;5041952;28;20044;-47
2022/05/24 07:37:02;;;;;;;3.60;1.50;;;25.50;44.40;;;;;;5044134;28;20032;-48
2022/05/24 07:39:28;;;;;;;3.65;1.45;;;25.50;44.40;;;;;;5043651;28;20079;-46
2022/05/24 07:47:36;;;;;;;4.75;1.40;;;25.50;44.40;;;;;;4985310;28;20045;-47
2022/05/24 07:50:02;;;;;;;3.45;1.70;;;25.50;44.50;;;;;;5043879;28;20602;-47
2022/05/24 07:52:28;;;;;;;3.83;1.50;;;25.50;44.50;;;;;;5043521;28;20059;-47
2022/05/24 07:54:54;;;;;;;3.42;1.60;;;25.50;44.50;;;;;;5044111;28;20032;-47
2022/05/24 07:57:20;;;;;;;4.55;2.00;;;25.50;44.40;;;;;;5048412;28;20074;-48
2022/05/24 07:59:47;;;;;;;3.88;1.60;;;25.50;44.40;;;;;;5048438;28;20637;-47
2022/05/24 08:02:15;;;;;;;2.50;1.40;;;25.50;44.40;;;;;;5046610;28;20033;-49
2022/05/24 08:04:41;;;;;;;2.60;1.20;;;25.50;44.30;;;;;;5041909;28;20048;-46
2022/05/24 08:07:07;;;;;;;3.03;1.30;;;25.50;44.30;;;;;;5029713;28;20505;-48
2022/05/24 08:09:33;;;;;;;4.07;1.45;;;25.50;44.30;;;;;;5047848;28;20025;-46
2022/05/24 08:11:58;;;;;;;4.10;1.88;;;25.50;44.20;;;;;;5048282;28;20025;-47
2022/05/24 08:14:24;;;;;;;3.80;1.73;;;25.50;44.20;;;;;;5047274;28;20707;-47
2022/05/24 08:16:50;;;;;;;3.03;1.30;;;25.50;44.20;;;;;;5047508;28;20093;-47
2022/05/24 08:19:16;;;;;;;3.38;1.40;;;25.50;44.20;;;;;;5047069;28;20060;-48
2022/05/24 08:21:43;;;;;;;3.42;1.30;;;25.50;44.20;;;;;;5043739;28;20047;-48
2022/05/24 08:24:09;;;;;;;3.67;1.20;;;25.50;44.10;;;;;;5047135;28;20096;-47
2022/05/24 08:26:37;;;;;;;3.60;1.40;;;25.50;44.10;;;;;;5046503;28;20103;-48
2022/05/24 08:29:03;;;;;;;5.18;1.50;;;25.50;44.10;;;;;;5047646;28;20489;-46
2022/05/24 08:31:29;;;;;;;3.17;1.50;;;25.50;44.10;;;;;;5047879;28;20025;-47
2022/05/24 08:33:55;;;;;;;2.60;1.40;;;25.50;44.10;;;;;;5046868;28;20075;-47
2022/05/24 08:36:21;;;;;;;2.60;1.20;;;25.50;44.10;;;;;;5047807;28;20033;-46
2022/05/24 08:38:47;;;;;;;3.53;1.50;;;25.50;44.10;;;;;;5046955;28;20033;-48
2022/05/24 08:41:26;;;;;;;3.05;1.30;;;25.50;44.30;;;;;;5047005;28;20039;-46
2022/05/24 08:48:22;;;;;;;2.65;1.38;;;25.50;44.50;;;;;;5046599;28;20033;-45
2022/05/24 08:49:38;;;;;;;4.57;1.45;;;25.50;44.80;;;;;;5044441;28;20188;-47
2022/05/24 08:52:07;;;;;;;3.50;1.58;;;25.50;44.80;;;;;;5046103;28;20075;-47
2022/05/24 08:54:39;;;;;;;2.65;1.45;;;25.50;44.80;;;;;;5045266;28;20029;-48
2022/05/24 08:57:13;;;;;;;3.35;1.25;;;25.50;44.70;;;;;;5044877;28;20818;-47
2022/05/24 08:59:47;;;;;;;2.33;1.40;;;25.50;44.60;;;;;;5044494;28;20067;-48
2022/05/24 09:02:13;;;;;;;2.67;1.42;;;25.50;44.60;;;;;;5045089;28;20024;-48
2022/05/24 09:04:39;;;;;;;3.28;1.50;;;25.50;44.60;;;;;;5046626;28;20029;-48
2022/05/24 09:07:12;;;;;;;2.78;1.60;;;25.50;44.60;;;;;;5040165;28;20037;-47
2022/05/24 09:10:04;;;;;;;3.55;1.30;;;25.50;44.70;;;;;;5028119;28;20049;-47
2022/05/24 09:13:20;;;;;;;4.20;1.48;;;25.50;44.80;;;;;;5026136;28;20227;-46
2022/05/24 09:15:58;;;;;;;3.20;1.35;;;25.50;44.80;;;;;;4977859;28;20138;-47
2022/05/24 09:18:50;;;;;;;2.88;1.30;;;25.50;44.70;;;;;;5037813;28;20060;-47
2022/05/24 09:21:29;;;;;;;2.75;1.58;;;25.50;44.70;;;;;;5046051;28;20026;-47
2022/05/24 09:24:20;;;;;;;3.03;1.30;;;25.50;44.70;;;;;;5045444;28;20104;-49
2022/05/24 09:27:02;;;;;;;2.80;1.60;;;25.50;44.70;;;;;;5046175;28;20032;-48
2022/05/24 09:29:27;;;;;;;2.10;1.17;;;25.50;44.70;;;;;;5045449;28;20549;-47
2022/05/24 09:31:56;;;;;;;2.30;1.20;;;25.50;44.70;;;;;;5045839;28;20108;-47
2022/05/24 09:34:29;;;;;;;3.45;1.40;;;25.50;44.70;;;;;;5045923;28;20540;-47
2022/05/24 09:36:57;;;;;;;4.60;1.50;;;25.50;45.40;;;;;;5046480;28;20033;-48
2022/05/24 09:39:55;;;;;;;3.42;1.73;;;25.50;44.70;;;;;;5046200;28;20033;-47
2022/05/24 09:42:30;;;;;;;2.83;1.30;;;25.50;44.70;;;;;;5046262;28;20021;-48
2022/05/24 09:45:01;;;;;;;2.55;1.20;;;25.50;44.70;;;;;;5045701;28;20021;-48
2022/05/24 09:47:49;;;;;;;2.70;1.52;;;25.50;44.70;;;;;;5045016;28;20515;-46
2022/05/24 09:50:30;;;;;;;2.85;1.60;;;25.50;44.80;;;;;;5044211;28;20037;-47
2022/05/24 09:53:12;;;;;;;2.95;1.35;;;25.50;44.90;;;;;;5045083;28;20650;-48
2022/05/24 09:55:49;;;;;;;2.65;1.30;;;25.50;44.90;;;;;;5045063;28;20095;-48
2022/05/24 09:58:30;;;;;;;3.25;1.75;;;25.50;44.90;;;;;;5045102;28;20025;-46
2022/05/24 10:01:14;;;;;;;2.67;1.40;;;25.50;45.00;;;;;;5046070;28;20064;-47
2022/05/24 10:03:45;;;;;;;2.65;1.20;;;25.50;44.90;;;;;;5033414;28;20039;-47
2022/05/24 10:06:14;;;;;;;3.10;1.65;;;25.50;45.00;;;;;;5045788;28;20104;-46
2022/05/24 10:08:46;;;;;;;2.25;1.13;;;25.50;45.00;;;;;;5045592;28;20025;-47
2022/05/24 10:11:33;;;;;;;3.10;1.30;;;25.50;44.90;;;;;;5045929;28;20118;-47
2022/05/24 10:14:24;;;;;;;3.15;1.52;;;25.50;44.90;;;;;;5045372;28;20065;-47
2022/05/24 10:17:02;;;;;;;3.00;1.60;;;25.50;45.00;;;;;;5045875;28;20508;-46
2022/05/24 10:19:34;;;;;;;2.17;1.08;;;25.60;44.90;;;;;;5045161;28;20029;-47
2022/05/24 10:22:22;;;;;;;2.65;1.33;;;25.50;44.90;;;;;;5045555;28;20036;-48
2022/05/24 10:25:02;;;;;;;2.17;1.13;;;25.60;44.80;;;;;;5045302;28;20083;-48
2022/05/24 10:27:42;;;;;;;3.05;1.38;;;25.50;44.80;;;;;;5045606;28;20021;-47
2022/05/24 10:30:19;;;;;;;1.95;1.17;;;25.50;44.80;;;;;;5045801;28;20022;-47
2022/05/24 10:38:39;;;;;;;3.78;1.70;;;25.60;44.80;;;;;;5045590;28;20028;-47
2022/05/24 10:41:32;;;;;;;2.20;1.20;;;25.50;44.80;;;;;;5045093;28;20094;-47
2022/05/24 10:44:14;;;;;;;2.80;1.20;;;25.60;44.80;;;;;;5045295;28;20065;-47
2022/05/24 10:46:46;;;;;;;2.75;1.40;;;25.60;44.80;;;;;;5026706;28;20681;-46
2022/05/24 10:49:31;;;;;;;3.67;1.48;;;25.50;44.80;;;;;;5044729;28;20037;-47
2022/05/24 10:52:11;;;;;;;2.38;1.00;;;25.60;44.70;;;;;;5044136;28;20428;-47
2022/05/24 10:55:09;;;;;;;2.90;1.48;;;25.60;44.70;;;;;;5038080;28;20513;-47
2022/05/24 10:58:01;;;;;;;2.90;1.27;;;25.60;44.80;;;;;;5030741;28;20122;-45
2022/05/24 11:00:34;;;;;;;2.42;1.15;;;25.60;44.70;;;;;;5043854;28;20029;-48
2022/05/24 11:03:16;;;;;;;3.58;1.40;;;25.60;44.80;;;;;;5035537;28;20028;-47
2022/05/24 11:05:47;;;;;;;2.33;1.10;;;25.60;44.80;;;;;;5041802;28;20107;-48
2022/05/24 11:08:31;;;;;;;2.13;1.35;;;25.60;44.80;;;;;;5044492;28;20027;-46
2022/05/24 11:11:04;;;;;;;2.92;1.17;;;25.60;44.70;;;;;;5041546;28;20044;-47
2022/05/24 11:13:52;;;;;;;3.53;1.42;;;25.60;44.70;;;;;;5029233;28;20068;-48
2022/05/24 11:16:29;;;;;;;2.72;1.10;;;25.60;44.70;;;;;;5024636;28;20026;-47
2022/05/24 11:18:55;;;;;;;2.58;1.17;;;25.60;44.70;;;;;;5041376;28;20451;-48
2022/05/24 11:21:46;;;;;;;2.75;1.27;;;25.60;44.80;;;;;;5032230;28;20044;-48
2022/05/24 11:24:24;;;;;;;2.20;1.30;;;25.60;44.70;;;;;;5038545;28;20455;-48
2022/05/24 11:26:54;;;;;;;2.03;0.90;;;25.60;44.70;;;;;;5044366;28;20057;-46
2022/05/24 11:29:26;;;;;;;2.50;1.55;;;25.60;44.80;;;;;;5044349;28;20075;-48
2022/05/24 11:32:06;;;;;;;2.33;1.25;;;25.60;44.80;;;;;;5043026;28;20219;-47
2022/05/24 11:34:41;;;;;;;2.83;1.50;;;25.60;44.80;;;;;;5043708;28;20037;-48
2022/05/24 11:37:27;;;;;;;2.53;1.20;;;25.60;44.80;;;;;;5044074;28;20528;-46
2022/05/24 11:39:53;;;;;;;2.22;1.23;;;25.60;44.80;;;;;;5043993;28;20041;-46
2022/05/24 11:42:29;;;;;;;2.42;1.30;;;25.60;45.00;;;;;;5026575;28;20472;-46
2022/05/24 11:44:57;;;;;;;2.55;1.20;;;25.60;44.90;;;;;;5044136;28;20397;-47
2022/05/24 11:47:35;;;;;;;3.00;1.23;;;25.60;44.80;;;;;;5044555;28;20064;-48
2022/05/24 11:50:05;;;;;;;2.92;1.42;;;25.60;44.80;;;;;;5044403;28;20516;-49
2022/05/24 11:52:42;;;;;;;3.25;1.33;;;25.70;44.80;;;;;;5042937;28;20223;-47
2022/05/24 11:55:08;;;;;;;1.98;1.00;;;25.70;44.90;;;;;;5043956;28;20111;-47
2022/05/24 11:57:42;;;;;;;2.75;1.30;;;25.70;44.90;;;;;;5044259;28;20516;-46
2022/05/24 12:00:12;;;;;;;2.20;1.13;;;25.70;44.80;;;;;;5043532;28;20040;-48
2022/05/24 12:08:38;;;;;;;2.58;1.13;;;25.70;44.80;;;;;;5043855;28;20099;-45
2022/05/24 12:11:12;;;;;;;2.70;1.10;;;25.70;44.80;;;;;;5044243;28;20104;-47
2022/05/24 12:13:44;;;;;;;2.40;1.17;;;25.70;44.80;;;;;;5043383;28;20025;-48
2022/05/24 12:16:31;;;;;;;2.30;1.10;;;25.80;44.80;;;;;;5043658;28;20143;-48
2022/05/24 12:18:59;;;;;;;2.45;1.23;;;25.70;44.70;;;;;;5043859;28;20029;-47
2022/05/24 12:22:00;;;;;;;1.92;1.02;;;25.70;44.80;;;;;;5043689;28;20049;-46
2022/05/24 12:24:29;;;;;;;3.90;1.35;;;25.70;44.70;;;;;;5043122;28;20026;-48
2022/05/24 12:27:33;;;;;;;3.60;1.42;;;25.70;44.70;;;;;;5043824;28;20029;-47
2022/05/24 12:30:23;;;;;;;1.98;1.15;;;25.70;44.70;;;;;;5043526;28;20028;-47
2022/05/24 12:32:50;;;;;;;2.42;1.25;;;25.70;44.70;;;;;;5041462;28;20060;-47
2022/05/24 12:35:19;;;;;;;2.50;1.10;;;25.70;44.70;;;;;;5043112;28;20029;-48
2022/05/24 12:37:50;;;;;;;3.03;1.05;;;25.70;44.80;;;;;;5043262;28;20041;-47
2022/05/24 12:40:20;;;;;;;3.10;1.27;;;25.80;44.70;;;;;;5043101;28;20036;-47
2022/05/24 12:42:49;;;;;;;2.67;1.02;;;25.70;44.70;;;;;;5044655;28;20028;-47
2022/05/24 12:45:29;;;;;;;2.53;1.30;;;25.80;44.70;;;;;;5045744;28;20025;-47
2022/05/24 12:47:57;;;;;;;2.90;1.30;;;25.70;44.80;;;;;;5040782;28;20033;-46
2022/05/24 12:50:39;;;;;;;2.60;1.13;;;25.80;44.90;;;;;;5046545;28;20040;-47
2022/05/24 12:53:08;;;;;;;2.67;1.25;;;25.80;44.90;;;;;;5043952;28;20025;-48
2022/05/24 12:58:30;;;;;;;2.88;1.38;;;25.80;45.20;;;;;;5046119;28;20531;-47
2022/05/24 13:01:25;;;;;;;2.90;1.25;;;25.80;45.20;;;;;;5046133;28;20482;-48
2022/05/24 13:04:16;;;;;;;2.55;1.30;;;25.80;45.20;;;;;;5046422;28;20035;-48
2022/05/24 13:06:43;;;;;;;2.80;1.33;;;25.80;45.10;;;;;;5046788;28;20032;-48
2022/05/24 13:09:14;;;;;;;2.65;1.20;;;25.80;45.00;;;;;;5046613;28;20159;-48
2022/05/24 13:11:42;;;;;;;2.90;1.20;;;25.80;45.10;;;;;;5046606;28;20058;-48
2022/05/24 13:14:14;;;;;;;2.60;1.00;;;25.80;45.00;;;;;;5045827;28;20304;-49
2022/05/24 13:16:41;;;;;;;1.75;0.98;;;25.80;45.00;;;;;;5045740;28;20370;-47
2022/05/24 13:19:07;;;;;;;2.47;1.00;;;25.80;45.10;;;;;;5037441;28;20036;-47
2022/05/24 13:21:34;;;;;;;2.42;1.30;;;25.80;45.00;;;;;;5042957;28;20041;-48
2022/05/24 13:24:17;;;;;;;3.88;1.30;;;25.80;45.00;;;;;;5043218;28;20179;-47
2022/05/24 13:27:05;;;;;;;2.80;1.38;;;25.80;45.20;;;;;;5043625;28;20029;-48
2022/05/24 13:33:33;;;;;;;2.63;1.20;;;25.80;45.30;;;;;;5043466;28;20021;-48
2022/05/24 13:35:02;;;;;;;2.75;1.17;;;25.80;45.40;;;;;;5043209;28;20086;-46
2022/05/24 13:37:49;;;;;;;3.42;1.45;;;25.80;45.70;;;;;;5044153;28;20025;-47
2022/05/24 13:40:15;;;;;;;1.90;1.05;;;25.80;45.70;;;;;;5027231;28;20473;-47
2022/05/24 13:42:57;;;;;;;2.97;1.42;;;25.80;45.40;;;;;;5044880;28;20114;-47
2022/05/24 13:45:26;;;;;;;2.35;1.20;;;25.80;45.40;;;;;;5044385;28;20024;-47
2022/05/24 13:47:55;;;;;;;2.97;1.35;;;25.80;45.60;;;;;;5043540;28;20377;-46